Menno, South Dakota
Current Conditions -  °F | °C
As of 12:15 PM on Friday 19 Dec 2014 (Local Time) from KYKN Reporting Station
Overcast Overcast  
Wind Chill: 20°   Ceiling: 800
Heat Index: 30°   Visibility: 8mi
Dew Point: 27°   Wind: 13mph
Humidity: 86%   Direction: 180°S
Pressure: 30.13"   Gusts: NA
Location:  43.24°N, 97.58°W
Report Text: KYKN 191815Z AUTO 18011KT 8SM OVC008 M01/M03 A3013 RMK AO1
Loading
Personal Weather Stations






























Interactive Weather Map New forecast layout! Learn more

10-Day Weather Forecast

Advertisements
Track Severe Weather on mobile